Time;durP1;ratioP1;P1;durP2;ratioP2;P2;SDS_P1;SDS_P2;PMS_P1;PMS_P2;Temp;Humidity;BMP_temperature;BMP_pressure;BME280_temperature;BME280_humidity;BME280_pressure;Samples;Min_cycle;Max_cycle;Signal;HPM_P1;HPM_P2
2022/08/16 00:00:25;;;;;;;8.88;7.63;;;20.60;99.90;;;;;;5001662;28;20183;-88
2022/08/16 00:02:52;;;;;;;7.93;7.05;;;20.60;99.90;;;;;;5001520;28;20623;-88
2022/08/16 00:05:19;;;;;;;9.55;8.07;;;20.60;99.90;;;;;;5001539;28;20302;-87
2022/08/16 00:07:45;;;;;;;10.30;7.85;;;20.60;99.90;;;;;;5001281;28;20167;-88
2022/08/16 00:10:13;;;;;;;13.88;8.25;;;20.60;99.90;;;;;;5018884;28;20175;-88
2022/08/16 00:12:40;;;;;;;10.55;8.23;;;20.50;99.90;;;;;;4989222;28;20187;-89
2022/08/16 00:15:14;;;;;;;12.32;8.63;;;20.50;99.90;;;;;;4982425;28;20175;-88
2022/08/16 00:17:40;;;;;;;10.68;8.13;;;20.50;99.90;;;;;;4982158;28;20184;-90
2022/08/16 00:20:08;;;;;;;9.50;8.50;;;20.50;99.90;;;;;;4981488;28;20184;-91
2022/08/16 00:22:35;;;;;;;11.32;8.77;;;20.50;99.90;;;;;;4991748;28;20188;-89
2022/08/16 00:25:01;;;;;;;10.75;8.57;;;20.40;99.90;;;;;;5018533;28;20210;-93
2022/08/16 00:27:27;;;;;;;9.57;8.35;;;20.40;99.90;;;;;;5001366;28;20173;-87
2022/08/16 00:29:53;;;;;;;14.23;9.05;;;20.40;99.90;;;;;;4996944;28;20211;-89
2022/08/16 00:32:19;;;;;;;10.05;9.05;;;20.40;99.90;;;;;;4981434;28;20659;-89
2022/08/16 00:34:47;;;;;;;9.77;8.77;;;20.30;99.90;;;;;;4981654;28;20266;-90
2022/08/16 00:37:13;;;;;;;11.00;9.00;;;20.40;99.90;;;;;;4977735;28;20697;-88
2022/08/16 00:39:39;;;;;;;10.57;9.23;;;20.40;99.90;;;;;;4979227;28;20231;-89
2022/08/16 00:42:05;;;;;;;10.40;9.25;;;20.40;99.90;;;;;;4978053;28;20180;-88
2022/08/16 00:44:32;;;;;;;10.80;9.45;;;20.30;99.90;;;;;;4978064;28;20204;-88
2022/08/16 00:47:07;;;;;;;10.38;8.55;;;20.30;99.90;;;;;;4978124;28;20211;-88
2022/08/16 00:49:35;;;;;;;11.82;9.50;;;20.30;99.90;;;;;;4977936;28;20191;-92
2022/08/16 00:52:00;;;;;;;10.68;9.23;;;20.30;99.90;;;;;;4978072;28;20631;-92
2022/08/16 00:54:30;;;;;;;10.88;9.25;;;20.30;99.90;;;;;;4977986;28;20185;-90
2022/08/16 00:56:58;;;;;;;12.40;9.77;;;20.20;99.90;;;;;;4978079;28;20180;-91
2022/08/16 00:59:26;;;;;;;11.02;9.93;;;20.10;99.90;;;;;;4978169;28;20219;-92
2022/08/16 01:01:52;;;;;;;11.15;9.30;;;20.10;99.90;;;;;;4960216;28;20183;-95
2022/08/16 01:04:23;;;;;;;10.65;9.50;;;20.10;99.90;;;;;;4958268;28;20639;-90
2022/08/16 01:06:50;;;;;;;11.27;9.38;;;20.10;99.90;;;;;;4958534;29;20189;-91
2022/08/16 01:09:16;;;;;;;10.63;9.48;;;20.10;99.90;;;;;;4957789;28;20174;-90
2022/08/16 01:11:43;;;;;;;14.32;10.23;;;20.10;99.90;;;;;;4968789;28;20216;-90
2022/08/16 01:14:27;;;;;;;12.38;10.15;;;20.10;99.90;;;;;;4997207;28;20186;-92
2022/08/16 01:16:54;;;;;;;11.65;8.32;;;20.10;99.90;;;;;;4997225;28;20211;-89
2022/08/16 01:19:26;;;;;;;12.02;9.52;;;20.10;99.90;;;;;;4997122;28;20179;-89
2022/08/16 01:22:15;;;;;;;12.07;9.45;;;20.10;99.90;;;;;;5429512;23;20300;-88
2022/08/16 01:25:11;;;;;;;11.30;9.60;;;20.10;99.90;;;;;;4988298;28;20338;-88
2022/08/16 01:27:43;;;;;;;13.20;10.00;;;20.10;99.90;;;;;;4998991;28;20186;-88
2022/08/16 01:30:13;;;;;;;13.32;9.40;;;20.00;99.90;;;;;;5016376;28;20609;-89
2022/08/16 01:32:43;;;;;;;10.95;9.32;;;20.10;99.90;;;;;;4999192;28;20613;-87
2022/08/16 01:35:16;;;;;;;14.15;10.07;;;20.00;99.90;;;;;;4998646;28;20524;-89
2022/08/16 01:37:45;;;;;;;12.32;9.27;;;20.00;99.90;;;;;;4998554;28;20189;-88
2022/08/16 01:40:13;;;;;;;13.10;9.68;;;20.00;99.90;;;;;;5016310;28;20183;-88
2022/08/16 01:42:40;;;;;;;11.35;9.43;;;20.00;99.90;;;;;;4998161;28;20187;-89
2022/08/16 01:45:06;;;;;;;11.13;9.68;;;20.00;99.90;;;;;;4999011;28;20253;-89
2022/08/16 01:47:33;;;;;;;15.85;9.80;;;20.00;99.90;;;;;;4998619;28;20218;-89
2022/08/16 01:49:59;;;;;;;12.50;8.75;;;20.00;99.90;;;;;;5015142;28;20482;-88
2022/08/16 01:52:25;;;;;;;12.63;9.50;;;20.00;99.90;;;;;;5010510;28;20175;-88
2022/08/16 01:54:51;;;;;;;12.85;9.95;;;20.00;99.90;;;;;;4998710;28;20175;-88
2022/08/16 01:57:17;;;;;;;11.48;9.40;;;20.00;99.90;;;;;;5011313;28;20179;-91
2022/08/16 01:59:43;;;;;;;10.98;9.15;;;20.00;99.90;;;;;;5015434;28;20179;-90
2022/08/16 02:02:09;;;;;;;12.43;8.82;;;20.00;99.90;;;;;;5015592;28;20180;-89
2022/08/16 02:04:37;;;;;;;10.48;9.02;;;19.90;99.90;;;;;;5008189;28;20214;-89
2022/08/16 02:07:07;;;;;;;10.30;8.88;;;19.90;99.90;;;;;;4998587;28;20187;-89
2022/08/16 02:09:36;;;;;;;14.30;9.13;;;19.90;99.90;;;;;;4998814;28;20546;-88
2022/08/16 02:12:03;;;;;;;10.63;8.75;;;19.80;99.90;;;;;;4998745;28;20179;-87
2022/08/16 02:14:32;;;;;;;10.43;8.65;;;19.80;99.90;;;;;;4997650;28;20191;-88
2022/08/16 02:17:00;;;;;;;11.93;9.80;;;19.80;99.90;;;;;;4998670;28;20183;-88
2022/08/16 02:19:28;;;;;;;12.98;8.48;;;19.80;99.90;;;;;;4998563;28;20183;-88
2022/08/16 02:21:56;;;;;;;9.98;8.98;;;19.70;99.90;;;;;;4998384;28;20680;-89
2022/08/16 02:24:24;;;;;;;16.80;8.82;;;19.70;99.90;;;;;;4998440;28;20556;-87
2022/08/16 02:26:50;;;;;;;10.48;8.40;;;19.70;99.90;;;;;;4998735;28;20176;-88
2022/08/16 02:29:19;;;;;;;9.73;8.70;;;19.70;99.90;;;;;;4998642;28;20185;-87
2022/08/16 02:31:48;;;;;;;15.50;8.88;;;19.70;99.90;;;;;;4998070;28;20266;-87
2022/08/16 02:34:16;;;;;;;12.20;9.35;;;19.70;99.90;;;;;;4998729;28;20179;-89
2022/08/16 02:36:42;;;;;;;10.98;8.75;;;19.70;99.90;;;;;;4998261;28;20921;-87
2022/08/16 02:39:10;;;;;;;13.45;9.43;;;19.70;99.90;;;;;;5005869;28;20222;-89
2022/08/16 02:41:38;;;;;;;10.93;9.13;;;19.70;99.90;;;;;;5014744;28;20517;-88
2022/08/16 02:44:07;;;;;;;11.30;9.05;;;19.60;99.90;;;;;;5005209;28;20186;-88
2022/08/16 02:46:33;;;;;;;11.65;9.32;;;19.70;99.90;;;;;;4994947;28;20505;-90
2022/08/16 02:49:00;;;;;;;12.27;8.57;;;19.60;99.90;;;;;;4998197;28;20187;-89
2022/08/16 02:51:26;;;;;;;13.90;8.68;;;19.60;99.90;;;;;;4991978;28;20180;-88
2022/08/16 02:53:53;;;;;;;11.95;9.07;;;19.60;99.90;;;;;;5005767;28;20190;-88
2022/08/16 02:56:19;;;;;;;12.70;9.60;;;19.60;99.90;;;;;;5014169;28;20638;-89
2022/08/16 02:58:48;;;;;;;10.63;8.48;;;19.60;99.90;;;;;;5006243;28;20191;-89
2022/08/16 03:01:17;;;;;;;12.27;8.82;;;19.60;99.90;;;;;;4997683;28;20179;-88
2022/08/16 03:03:43;;;;;;;11.63;8.60;;;19.50;99.90;;;;;;5005698;28;20222;-90
2022/08/16 03:06:11;;;;;;;11.95;8.90;;;19.50;99.90;;;;;;5015096;28;20242;-89
2022/08/16 03:08:36;;;;;;;10.85;9.07;;;19.50;99.90;;;;;;5013389;28;20183;-88
2022/08/16 03:11:03;;;;;;;9.45;8.45;;;19.50;99.90;;;;;;4997659;28;20494;-89
2022/08/16 03:13:28;;;;;;;10.88;8.68;;;19.50;99.90;;;;;;5002000;28;20646;-89
2022/08/16 03:15:54;;;;;;;12.38;9.15;;;19.40;99.90;;;;;;5014829;28;20182;-89
2022/08/16 03:18:20;;;;;;;9.90;8.32;;;19.40;99.90;;;;;;5014971;28;20335;-87
2022/08/16 03:20:46;;;;;;;11.73;9.27;;;19.40;99.90;;;;;;5014953;28;20621;-88
2022/08/16 03:23:11;;;;;;;10.52;8.98;;;19.40;99.90;;;;;;5013478;28;20234;-88
2022/08/16 03:25:37;;;;;;;14.35;8.38;;;19.30;99.90;;;;;;4998950;28;20242;-89
2022/08/16 03:28:05;;;;;;;12.43;8.30;;;19.40;99.90;;;;;;5000302;28;20183;-87
2022/08/16 03:30:32;;;;;;;10.85;9.25;;;19.30;99.90;;;;;;4996908;28;20198;-88
2022/08/16 03:32:58;;;;;;;11.88;8.90;;;19.30;99.90;;;;;;5014286;28;20179;-89
2022/08/16 03:35:40;;;;;;;11.10;8.85;;;19.30;99.90;;;;;;5002291;28;20676;-88
2022/08/16 03:38:10;;;;;;;12.02;8.32;;;19.30;99.90;;;;;;5001295;28;20282;-88
2022/08/16 03:40:36;;;;;;;10.77;8.07;;;19.20;99.90;;;;;;4999722;28;20262;-87
2022/08/16 03:43:08;;;;;;;10.82;8.52;;;19.20;99.90;;;;;;5004847;28;20183;-89
2022/08/16 03:45:38;;;;;;;11.88;8.80;;;19.20;99.90;;;;;;4997191;28;20509;-88
2022/08/16 03:48:05;;;;;;;11.13;8.40;;;19.20;99.90;;;;;;5014378;28;20258;-91
2022/08/16 03:50:31;;;;;;;19.23;8.18;;;19.20;99.90;;;;;;4996725;28;20214;-88
2022/08/16 03:52:57;;;;;;;8.88;7.97;;;19.20;99.90;;;;;;5000543;28;20512;-89
2022/08/16 03:55:24;;;;;;;9.45;8.13;;;19.20;99.90;;;;;;5006253;28;20218;-89
2022/08/16 03:57:52;;;;;;;11.85;8.60;;;19.10;99.90;;;;;;4990389;28;20215;-88
2022/08/16 04:00:22;;;;;;;10.02;8.65;;;19.10;99.90;;;;;;5002819;28;20194;-87
2022/08/16 04:02:49;;;;;;;10.70;8.73;;;19.10;99.90;;;;;;4996669;28;20189;-86
2022/08/16 04:05:18;;;;;;;10.25;8.73;;;19.10;99.90;;;;;;4999578;28;20215;-88
2022/08/16 04:07:44;;;;;;;11.98;8.20;;;19.10;99.90;;;;;;4990326;28;20180;-90
2022/08/16 04:10:11;;;;;;;12.05;8.68;;;19.10;99.90;;;;;;5003959;28;20240;-88
2022/08/16 04:12:38;;;;;;;13.90;8.43;;;19.10;99.90;;;;;;5000543;28;20191;-86
2022/08/16 04:15:06;;;;;;;10.65;8.57;;;19.10;99.90;;;;;;4997878;28;20190;-87
2022/08/16 04:17:33;;;;;;;12.38;8.48;;;19.10;99.90;;;;;;5014187;28;20262;-88
2022/08/16 04:19:59;;;;;;;10.85;8.15;;;19.10;99.90;;;;;;5005195;28;20499;-88
2022/08/16 04:22:25;;;;;;;12.18;8.50;;;19.10;99.90;;;;;;4996440;28;20284;-88
2022/08/16 04:24:51;;;;;;;11.10;8.20;;;19.10;99.90;;;;;;5014101;28;20207;-89
2022/08/16 04:27:18;;;;;;;10.43;8.35;;;19.10;99.90;;;;;;5004802;28;20186;-88
2022/08/16 04:29:44;;;;;;;12.15;9.07;;;19.10;99.90;;;;;;4988965;28;20188;-87
2022/08/16 04:32:09;;;;;;;20.63;8.65;;;19.10;99.90;;;;;;5010622;28;20185;-87
2022/08/16 04:34:38;;;;;;;9.35;7.97;;;19.10;99.90;;;;;;5001303;28;20286;-88
2022/08/16 04:37:05;;;;;;;9.20;8.27;;;19.10;99.90;;;;;;4996163;28;20200;-88
2022/08/16 04:39:33;;;;;;;12.25;8.50;;;19.10;99.90;;;;;;4993301;28;20195;-88
2022/08/16 04:41:59;;;;;;;12.00;8.27;;;19.00;99.90;;;;;;4997668;28;20274;-88
2022/08/16 04:44:25;;;;;;;11.48;8.30;;;19.00;99.90;;;;;;4999294;28;20183;-87
2022/08/16 04:46:52;;;;;;;10.63;8.52;;;19.00;99.90;;;;;;5017254;28;20681;-88
2022/08/16 04:49:18;;;;;;;12.00;7.63;;;19.00;99.90;;;;;;5014113;28;20210;-88
2022/08/16 04:51:44;;;;;;;16.35;8.18;;;19.10;99.90;;;;;;5008804;28;20210;-88
2022/08/16 04:54:11;;;;;;;10.32;8.07;;;19.00;99.90;;;;;;4999793;28;20581;-90
2022/08/16 04:56:37;;;;;;;10.45;7.57;;;19.10;99.90;;;;;;5006035;28;20193;-89
2022/08/16 04:59:04;;;;;;;11.85;7.47;;;19.10;99.90;;;;;;5017428;28;20179;-87
2022/08/16 05:01:30;;;;;;;8.20;7.30;;;19.10;99.90;;;;;;5007958;28;20618;-87
2022/08/16 05:03:56;;;;;;;10.52;7.88;;;19.10;99.90;;;;;;5003923;28;20186;-94
2022/08/16 05:06:21;;;;;;;9.80;7.53;;;19.20;99.90;;;;;;4989867;28;20222;-90
2022/08/16 05:08:47;;;;;;;10.38;6.88;;;19.20;99.90;;;;;;4996471;28;20175;-88
2022/08/16 05:11:14;;;;;;;11.68;7.70;;;19.30;99.90;;;;;;5001338;28;20187;-88
2022/08/16 05:13:43;;;;;;;9.60;7.43;;;19.30;99.90;;;;;;5017111;28;20179;-90
2022/08/16 05:16:16;;;;;;;8.55;6.90;;;19.30;99.90;;;;;;4995481;28;20191;-90
2022/08/16 05:18:42;;;;;;;10.73;7.38;;;19.30;99.90;;;;;;5016443;28;20489;-89
2022/08/16 05:21:11;;;;;;;9.63;8.00;;;19.40;99.90;;;;;;4996741;28;20183;-89
2022/08/16 05:23:37;;;;;;;8.73;7.47;;;19.40;99.90;;;;;;5003261;28;20322;-92
2022/08/16 05:26:03;;;;;;;8.68;7.43;;;19.40;99.90;;;;;;5015126;28;20349;-89
2022/08/16 05:28:34;;;;;;;8.07;7.28;;;19.40;99.90;;;;;;5001626;28;20198;-89
2022/08/16 05:31:00;;;;;;;9.80;7.28;;;19.40;99.90;;;;;;4999163;28;20186;-91
2022/08/16 05:33:26;;;;;;;9.88;7.45;;;19.40;99.90;;;;;;5015461;28;20183;-91
2022/08/16 05:35:52;;;;;;;12.27;7.97;;;19.40;99.90;;;;;;5014467;28;20206;-90
2022/08/16 05:38:18;;;;;;;9.45;7.75;;;19.50;99.90;;;;;;4998096;28;20183;-87
2022/08/16 05:40:44;;;;;;;9.50;7.20;;;19.50;99.90;;;;;;5015457;28;20494;-90
2022/08/16 05:43:10;;;;;;;9.20;7.18;;;19.50;99.90;;;;;;5015252;28;20183;-88
2022/08/16 05:45:36;;;;;;;9.68;6.90;;;19.50;99.90;;;;;;4999207;28;20215;-92
2022/08/16 05:48:03;;;;;;;12.85;7.18;;;19.60;99.90;;;;;;4998863;28;20175;-91
2022/08/16 05:50:28;;;;;;;9.45;6.50;;;19.60;99.90;;;;;;5008444;28;20641;-91
2022/08/16 05:52:54;;;;;;;12.60;6.78;;;19.60;99.90;;;;;;4998014;28;20193;-87
2022/08/16 05:55:19;;;;;;;8.23;6.45;;;19.60;99.90;;;;;;5014218;28;20179;-90
2022/08/16 05:57:46;;;;;;;9.90;6.38;;;19.70;99.90;;;;;;5016130;28;20203;-90
2022/08/16 06:00:13;;;;;;;8.73;6.53;;;19.70;99.90;;;;;;5009028;28;20258;-89
2022/08/16 06:02:42;;;;;;;9.55;6.60;;;19.70;99.90;;;;;;4998152;28;20175;-88
2022/08/16 06:05:09;;;;;;;6.65;5.72;;;19.80;99.90;;;;;;4998598;28;20207;-88
2022/08/16 06:07:35;;;;;;;6.30;5.70;;;19.90;99.90;;;;;;4998057;28;20175;-90
2022/08/16 06:10:01;;;;;;;13.88;6.88;;;19.90;99.90;;;;;;4998713;28;20213;-90
2022/08/16 06:12:28;;;;;;;9.88;6.18;;;20.00;99.90;;;;;;4997908;28;20182;-91
2022/08/16 06:14:57;;;;;;;7.93;6.20;;;20.10;99.90;;;;;;4998585;28;20179;-88
2022/08/16 06:17:23;;;;;;;10.98;6.13;;;20.10;99.90;;;;;;4998519;28;20206;-88
2022/08/16 06:19:49;;;;;;;8.32;6.47;;;20.10;99.90;;;;;;4998347;28;20187;-87
2022/08/16 06:22:15;;;;;;;6.82;5.68;;;20.20;99.90;;;;;;4997779;28;20619;-89
2022/08/16 06:24:43;;;;;;;8.45;6.25;;;20.20;99.90;;;;;;4997763;28;20257;-90
2022/08/16 06:27:09;;;;;;;7.30;6.60;;;20.20;99.90;;;;;;4998374;28;20270;-90
2022/08/16 06:29:34;;;;;;;8.35;6.80;;;20.30;99.90;;;;;;4998340;28;20269;-91
2022/08/16 06:32:01;;;;;;;7.72;6.32;;;20.30;99.90;;;;;;4998115;28;20668;-87
2022/08/16 06:34:27;;;;;;;6.45;5.80;;;20.40;99.90;;;;;;4998305;28;20194;-91
2022/08/16 06:36:53;;;;;;;7.18;5.93;;;20.50;99.90;;;;;;5004368;28;20229;-88
2022/08/16 06:39:22;;;;;;;8.95;6.38;;;20.50;99.90;;;;;;4999991;28;20187;-87
2022/08/16 06:41:47;;;;;;;8.25;5.95;;;20.60;99.90;;;;;;5005515;28;20265;-89
2022/08/16 06:44:14;;;;;;;10.35;6.07;;;20.60;99.90;;;;;;5021269;28;20210;-87
2022/08/16 06:46:40;;;;;;;8.00;6.03;;;20.70;99.90;;;;;;5019932;28;20524;-89
2022/08/16 06:49:09;;;;;;;7.15;5.65;;;20.80;99.90;;;;;;5006072;28;20191;-87
2022/08/16 06:51:36;;;;;;;8.70;5.85;;;20.80;99.90;;;;;;4995793;28;20274;-90
2022/08/16 06:54:04;;;;;;;8.45;5.38;;;20.90;99.90;;;;;;4988167;28;20721;-88
2022/08/16 06:56:30;;;;;;;10.13;5.32;;;21.00;99.90;;;;;;5016638;28;20186;-92
2022/08/16 06:58:56;;;;;;;8.80;5.28;;;21.00;99.90;;;;;;5000750;28;20179;-87
2022/08/16 07:01:22;;;;;;;7.65;4.82;;;21.10;99.90;;;;;;5000493;28;20509;-88
2022/08/16 07:03:48;;;;;;;7.25;5.03;;;21.20;99.90;;;;;;4999240;28;20265;-90
2022/08/16 07:06:15;;;;;;;6.75;4.60;;;21.20;99.90;;;;;;4999562;28;20214;-91
2022/08/16 07:08:41;;;;;;;6.30;4.95;;;21.30;99.90;;;;;;5001659;28;20189;-87
2022/08/16 07:11:08;;;;;;;8.77;4.53;;;21.40;99.90;;;;;;5002736;28;20194;-89
2022/08/16 07:13:34;;;;;;;7.28;4.82;;;21.50;99.90;;;;;;5015973;28;20202;-89
2022/08/16 07:16:01;;;;;;;6.55;4.40;;;21.50;99.90;;;;;;4992493;28;20617;-89
2022/08/16 07:18:27;;;;;;;6.50;4.63;;;21.60;99.90;;;;;;4980535;28;20577;-87
2022/08/16 07:20:53;;;;;;;5.70;4.60;;;21.70;99.90;;;;;;4998997;28;20188;-88
2022/08/16 07:23:19;;;;;;;6.85;4.63;;;21.80;99.90;;;;;;4993277;28;20293;-87
2022/08/16 07:39:15;;;;;;;8.27;4.43;;;22.50;99.90;;;;;;5014839;28;20225;-88
2022/08/16 07:41:40;;;;;;;11.10;4.60;;;22.60;99.90;;;;;;4996616;28;20182;-88
2022/08/16 07:44:06;;;;;;;7.30;4.10;;;22.70;99.90;;;;;;4990891;28;20190;-87
2022/08/16 07:46:32;;;;;;;5.07;4.18;;;22.80;99.90;;;;;;4997888;28;20645;-90
2022/08/16 07:48:58;;;;;;;6.10;4.53;;;22.80;99.90;;;;;;5014829;28;20607;-89
2022/08/16 07:51:23;;;;;;;5.47;4.03;;;22.90;99.90;;;;;;4997074;28;20209;-89
2022/08/16 07:53:50;;;;;;;9.13;4.07;;;23.00;99.90;;;;;;4996238;28;20217;-87
2022/08/16 07:56:19;;;;;;;6.32;3.95;;;23.00;99.90;;;;;;4997482;28;20287;-89
2022/08/16 07:58:46;;;;;;;4.75;3.33;;;23.10;99.90;;;;;;4996576;28;20172;-90
2022/08/16 08:01:12;;;;;;;11.27;4.30;;;23.30;99.90;;;;;;5014587;28;20983;-88
2022/08/16 08:03:39;;;;;;;5.38;3.55;;;23.30;99.90;;;;;;4996636;28;20199;-89
2022/08/16 08:06:05;;;;;;;6.00;3.53;;;23.40;99.90;;;;;;4997473;28;20245;-89
2022/08/16 08:08:33;;;;;;;6.75;4.20;;;23.50;99.90;;;;;;4998210;28;20179;-88
2022/08/16 08:10:59;;;;;;;6.15;3.80;;;23.50;99.90;;;;;;4998012;28;20183;-88
2022/08/16 08:13:25;;;;;;;7.55;4.13;;;23.60;99.90;;;;;;4998442;28;20186;-88
2022/08/16 08:15:50;;;;;;;4.30;3.90;;;23.60;99.90;;;;;;5000844;28;20577;-88
2022/08/16 08:18:16;;;;;;;5.90;4.10;;;23.70;99.90;;;;;;4990718;28;20215;-89
2022/08/16 08:20:44;;;;;;;7.97;3.78;;;23.80;99.90;;;;;;4981308;28;20187;-89
2022/08/16 08:23:12;;;;;;;6.15;4.10;;;23.90;99.90;;;;;;4995246;28;20239;-87
2022/08/16 08:25:44;;;;;;;6.35;4.00;;;23.90;99.90;;;;;;5001534;28;20219;-88
2022/08/16 08:28:11;;;;;;;6.05;4.05;;;24.00;99.90;;;;;;4998852;28;20175;-92
2022/08/16 08:30:37;;;;;;;4.45;3.88;;;24.20;99.90;;;;;;4996289;28;20184;-91
2022/08/16 08:33:03;;;;;;;4.80;3.50;;;24.20;99.90;;;;;;4998393;28;20176;-94
2022/08/16 08:35:28;;;;;;;5.53;3.80;;;24.30;99.90;;;;;;4997163;28;20619;-90
2022/08/16 08:37:54;;;;;;;5.53;4.03;;;24.30;99.90;;;;;;4984280;28;20188;-93
2022/08/16 08:40:22;;;;;;;5.38;4.20;;;24.40;99.90;;;;;;4983149;28;20177;-90
2022/08/16 08:42:47;;;;;;;5.82;3.25;;;24.50;99.90;;;;;;4983299;28;20238;-90
2022/08/16 08:45:14;;;;;;;5.93;3.63;;;24.50;99.90;;;;;;5001734;28;20203;-87
2022/08/16 08:47:41;;;;;;;5.65;3.50;;;24.70;99.90;;;;;;5001747;28;20610;-92
2022/08/16 08:50:08;;;;;;;5.10;3.05;;;24.80;99.90;;;;;;5002879;28;20202;-88
2022/08/16 08:52:34;;;;;;;6.80;3.38;;;25.00;99.90;;;;;;5004031;28;20188;-89
2022/08/16 08:55:04;;;;;;;4.90;3.55;;;25.10;99.90;;;;;;4992977;28;20259;-89
2022/08/16 08:57:29;;;;;;;7.45;3.47;;;25.10;99.60;;;;;;4980382;28;20183;-90
2022/08/16 08:59:56;;;;;;;5.20;3.22;;;25.20;99.30;;;;;;4996617;28;20183;-96
2022/08/16 09:02:22;;;;;;;3.97;3.20;;;25.20;99.70;;;;;;4983927;28;20268;-95
2022/08/16 09:04:48;;;;;;;4.30;2.80;;;25.30;99.10;;;;;;4996798;28;20212;-94
2022/08/16 09:07:14;;;;;;;3.60;2.80;;;25.40;99.60;;;;;;4995349;28;20189;-92
2022/08/16 09:09:40;;;;;;;5.00;3.00;;;25.40;98.40;;;;;;4977305;28;20239;-95
2022/08/16 09:12:07;;;;;;;3.90;3.00;;;25.50;98.90;;;;;;4983768;28;20182;-91
2022/08/16 09:14:38;;;;;;;3.20;2.65;;;25.50;98.60;;;;;;4995645;28;20195;-94
2022/08/16 09:17:05;;;;;;;4.18;2.78;;;25.60;97.70;;;;;;4996598;28;20176;-93
2022/08/16 09:19:31;;;;;;;5.05;3.03;;;25.60;98.20;;;;;;4997838;28;20223;-91
2022/08/16 09:21:58;;;;;;;3.45;2.60;;;25.80;98.70;;;;;;4992403;28;20580;-95
2022/08/16 09:24:24;;;;;;;4.50;2.67;;;25.90;99.00;;;;;;4977189;28;20169;-89
2022/08/16 09:26:49;;;;;;;4.45;2.70;;;26.00;97.50;;;;;;4978799;28;20188;-90
2022/08/16 09:29:15;;;;;;;6.97;3.00;;;26.00;97.00;;;;;;4977309;28;20172;-90
2022/08/16 09:31:41;;;;;;;3.35;2.55;;;26.10;97.30;;;;;;4977942;28;20494;-94
2022/08/16 09:34:08;;;;;;;3.90;2.47;;;26.20;96.70;;;;;;4977738;28;20620;-91
2022/08/16 09:36:33;;;;;;;6.82;2.60;;;26.20;96.10;;;;;;4995848;28;20195;-88
2022/08/16 09:39:02;;;;;;;3.63;2.55;;;26.20;96.50;;;;;;4992560;28;20184;-92
2022/08/16 09:41:27;;;;;;;3.47;2.63;;;26.30;95.90;;;;;;4983584;28;20179;-92
2022/08/16 09:43:54;;;;;;;2.92;2.72;;;26.30;96.40;;;;;;4998276;28;20612;-92
2022/08/16 09:46:20;;;;;;;3.20;2.90;;;26.40;95.70;;;;;;4997370;28;20251;-94
2022/08/16 09:48:47;;;;;;;2.97;2.60;;;26.40;96.20;;;;;;4997033;28;20179;-92
2022/08/16 09:51:13;;;;;;;4.53;2.55;;;26.40;95.60;;;;;;4996545;28;20199;-93
2022/08/16 09:53:38;;;;;;;6.03;2.55;;;26.40;94.70;;;;;;4996242;28;20615;-89
2022/08/16 09:56:15;;;;;;;4.38;2.70;;;26.40;94.60;;;;;;4996597;28;20591;-92
2022/08/16 09:58:40;;;;;;;3.72;2.53;;;26.40;95.80;;;;;;4996915;28;20171;-91
2022/08/16 10:01:06;;;;;;;5.03;2.70;;;26.50;95.50;;;;;;4996615;28;20190;-91
2022/08/16 10:03:32;;;;;;;7.40;2.97;;;26.60;96.00;;;;;;4997132;28;20183;-95
2022/08/16 10:05:57;;;;;;;4.53;2.40;;;26.60;94.70;;;;;;4997466;28;20250;-94
2022/08/16 10:08:23;;;;;;;4.60;2.30;;;26.70;94.60;;;;;;4996507;28;20176;-92
2022/08/16 10:13:33;;;;;;;5.75;2.30;;;26.80;94.30;;;;;;4999066;28;20163;-89
2022/08/16 10:15:59;;;;;;;4.57;2.50;;;26.80;94.30;;;;;;4980905;28;20177;-91
2022/08/16 10:18:29;;;;;;;2.55;2.20;;;26.90;94.30;;;;;;4986238;28;20180;-91
2022/08/16 10:20:57;;;;;;;2.75;2.10;;;27.00;94.10;;;;;;4997315;28;20180;-93
2022/08/16 10:23:24;;;;;;;2.30;2.10;;;27.00;93.90;;;;;;4997215;28;20318;-89
2022/08/16 10:25:50;;;;;;;4.57;2.28;;;27.20;94.50;;;;;;4996821;28;20269;-88
2022/08/16 10:28:16;;;;;;;4.80;2.30;;;27.30;94.40;;;;;;4999267;28;20203;-94
2022/08/16 10:30:43;;;;;;;3.72;2.13;;;27.30;93.60;;;;;;5000384;28;20180;-90
2022/08/16 10:33:12;;;;;;;3.45;2.25;;;27.30;93.10;;;;;;4998492;28;20534;-93
2022/08/16 10:35:39;;;;;;;2.75;2.40;;;27.40;93.60;;;;;;4977491;28;20193;-94
2022/08/16 10:38:05;;;;;;;4.22;2.60;;;27.50;92.70;;;;;;4978182;28;20267;-93
2022/08/16 10:40:31;;;;;;;4.07;1.95;;;27.60;92.60;;;;;;4994576;28;20551;-95
2022/08/16 10:43:01;;;;;;;2.83;2.00;;;27.70;92.60;;;;;;4988618;28;20267;-93
2022/08/16 10:45:29;;;;;;;2.42;2.17;;;27.70;92.20;;;;;;4994686;28;20204;-95
2022/08/16 10:47:55;;;;;;;2.15;1.95;;;27.50;92.70;;;;;;4993872;28;20183;-88
2022/08/16 10:50:22;;;;;;;5.57;2.38;;;27.40;92.60;;;;;;4979104;28;20186;-96
2022/08/16 10:52:49;;;;;;;2.72;2.05;;;27.40;92.70;;;;;;4976857;28;20831;-96
2022/08/16 10:55:14;;;;;;;3.15;2.22;;;27.50;92.60;;;;;;4978508;28;20203;-88
2022/08/16 10:57:41;;;;;;;4.05;2.60;;;27.60;92.80;;;;;;4984325;28;20460;-93
2022/08/16 11:00:13;;;;;;;3.20;2.10;;;27.70;92.10;;;;;;4996456;28;20187;-89
2022/08/16 11:02:40;;;;;;;2.50;2.25;;;27.80;92.70;;;;;;4995475;28;20187;-89
2022/08/16 11:05:10;;;;;;;2.63;2.10;;;27.70;91.90;;;;;;4995549;28;20219;-89
2022/08/16 11:07:38;;;;;;;4.30;2.33;;;27.80;92.30;;;;;;4995568;28;20172;-90
2022/08/16 11:10:04;;;;;;;2.75;2.10;;;28.00;91.10;;;;;;4994023;28;20191;-88
2022/08/16 11:12:30;;;;;;;4.00;2.35;;;28.10;92.40;;;;;;4995556;28;20214;-90
2022/08/16 11:14:55;;;;;;;4.18;2.30;;;28.30;92.40;;;;;;4995598;28;20180;-93
2022/08/16 11:17:21;;;;;;;4.60;2.45;;;28.40;91.50;;;;;;4992301;28;20807;-90
2022/08/16 11:19:47;;;;;;;2.65;2.40;;;28.60;91.90;;;;;;4997471;28;20184;-93
2022/08/16 11:22:13;;;;;;;2.92;2.63;;;28.60;91.70;;;;;;4979596;28;20239;-95
2022/08/16 11:24:39;;;;;;;4.40;2.20;;;28.50;91.80;;;;;;4994206;23;20231;-94
2022/08/16 11:27:15;;;;;;;2.85;2.58;;;28.20;91.30;;;;;;4994888;28;20182;-93
2022/08/16 11:29:40;;;;;;;3.80;2.50;;;27.80;92.20;;;;;;4975893;28;20282;-87
2022/08/16 11:32:07;;;;;;;2.88;2.17;;;27.60;91.50;;;;;;4972659;28;20577;-88
2022/08/16 11:34:33;;;;;;;3.95;2.28;;;27.40;93.20;;;;;;4973423;28;20180;-88
2022/08/16 11:37:02;;;;;;;3.13;2.40;;;27.30;91.80;;;;;;4975299;28;20647;-89
2022/08/16 11:39:30;;;;;;;3.05;2.17;;;27.30;92.00;;;;;;4972368;28;20224;-92
2022/08/16 11:41:57;;;;;;;3.53;2.15;;;27.50;91.80;;;;;;4972706;28;20208;-90
2022/08/16 11:44:25;;;;;;;3.20;2.22;;;27.60;92.30;;;;;;4972618;28;20260;-87
2022/08/16 11:46:50;;;;;;;2.63;2.08;;;27.80;91.50;;;;;;4974860;28;20189;-90
2022/08/16 11:49:16;;;;;;;2.80;1.98;;;27.80;91.50;;;;;;4980047;28;20675;-87
2022/08/16 11:51:43;;;;;;;2.63;1.95;;;27.90;90.90;;;;;;4991225;28;20179;-89
2022/08/16 11:54:11;;;;;;;3.80;2.03;;;28.20;91.50;;;;;;4997086;28;20264;-91
2022/08/16 11:56:37;;;;;;;3.45;1.75;;;28.30;91.80;;;;;;4997400;28;20168;-86
2022/08/16 11:59:03;;;;;;;4.55;2.15;;;28.50;90.90;;;;;;4998364;28;20238;-90
2022/08/16 12:01:29;;;;;;;3.45;1.80;;;28.70;90.60;;;;;;4997269;28;20635;-88
2022/08/16 12:03:55;;;;;;;4.20;2.00;;;28.80;91.20;;;;;;4997004;28;20167;-91
2022/08/16 12:06:21;;;;;;;2.10;1.90;;;28.90;90.50;;;;;;4996019;28;20199;-91
2022/08/16 12:08:48;;;;;;;3.38;2.25;;;29.00;88.80;;;;;;4995998;28;20198;-89
2022/08/16 12:11:16;;;;;;;3.42;2.38;;;29.10;90.00;;;;;;4990142;28;20200;-89
2022/08/16 12:13:43;;;;;;;2.95;2.13;;;29.10;90.00;;;;;;4982080;28;20172;-92
2022/08/16 12:16:10;;;;;;;5.20;2.20;;;29.30;90.50;;;;;;4994905;28;20179;-90
2022/08/16 12:18:36;;;;;;;2.50;2.15;;;29.20;88.80;;;;;;4995202;28;20306;-90
2022/08/16 12:21:03;;;;;;;2.65;2.03;;;29.00;88.90;;;;;;4995705;28;20218;-89
2022/08/16 12:23:30;;;;;;;3.70;2.20;;;28.70;88.40;;;;;;4995235;28;20187;-87
2022/08/16 12:25:56;;;;;;;3.92;2.00;;;28.40;89.10;;;;;;4997615;28;20194;-89
2022/08/16 12:28:23;;;;;;;3.53;2.20;;;28.10;90.20;;;;;;4998458;28;20651;-90
2022/08/16 12:30:48;;;;;;;3.42;2.30;;;27.90;90.10;;;;;;4997518;28;20194;-89
2022/08/16 12:33:15;;;;;;;5.40;2.35;;;27.80;90.50;;;;;;4997814;28;20175;-89
2022/08/16 12:35:47;;;;;;;3.90;2.22;;;27.80;90.80;;;;;;4981402;28;20176;-90
2022/08/16 12:38:14;;;;;;;7.07;2.22;;;27.80;91.90;;;;;;4979260;28;20172;-90
2022/08/16 12:40:43;;;;;;;3.80;2.05;;;27.80;91.00;;;;;;4978376;28;20235;-89
2022/08/16 12:43:12;;;;;;;3.03;2.03;;;27.90;90.50;;;;;;4996119;28;20183;-90
2022/08/16 12:45:50;;;;;;;3.88;2.30;;;28.20;89.90;;;;;;4978083;28;20210;-89
2022/08/16 12:51:09;;;;;;;3.25;2.20;;;28.10;89.80;;;;;;4996239;28;20289;-88
2022/08/16 12:53:35;;;;;;;2.97;2.60;;;27.90;90.00;;;;;;4995320;28;20183;-89
2022/08/16 12:56:01;;;;;;;4.72;2.40;;;27.90;90.70;;;;;;4997670;28;20171;-88
2022/08/16 12:58:28;;;;;;;4.68;1.98;;;27.90;90.40;;;;;;4997585;28;20183;-90
2022/08/16 13:00:55;;;;;;;4.55;2.60;;;28.20;89.20;;;;;;4996745;28;20286;-89